sensor_id;sensor_type;location;lat;lon;timestamp;temperature;humidity
13928;DHT22;7036;50.834;4.718;2022-08-21T00:02:14;25.30;53.20
13928;DHT22;7036;50.834;4.718;2022-08-21T00:04:40;25.30;53.20
13928;DHT22;7036;50.834;4.718;2022-08-21T00:07:08;25.30;53.20
13928;DHT22;7036;50.834;4.718;2022-08-21T00:09:34;25.30;53.20
13928;DHT22;7036;50.834;4.718;2022-08-21T00:12:03;25.30;53.20
13928;DHT22;7036;50.834;4.718;2022-08-21T00:14:30;25.30;53.20
13928;DHT22;7036;50.834;4.718;2022-08-21T00:16:58;25.30;53.20
13928;DHT22;7036;50.834;4.718;2022-08-21T00:19:26;25.30;53.20
13928;DHT22;7036;50.834;4.718;2022-08-21T00:21:53;25.30;53.20
13928;DHT22;7036;50.834;4.718;2022-08-21T00:24:20;25.30;53.30
13928;DHT22;7036;50.834;4.718;2022-08-21T00:26:46;25.20;53.20
13928;DHT22;7036;50.834;4.718;2022-08-21T00:29:13;25.20;53.20
13928;DHT22;7036;50.834;4.718;2022-08-21T00:31:41;25.30;53.30
13928;DHT22;7036;50.834;4.718;2022-08-21T00:34:07;25.30;52.60
13928;DHT22;7036;50.834;4.718;2022-08-21T00:36:34;25.20;53.20
13928;DHT22;7036;50.834;4.718;2022-08-21T00:39:01;25.20;53.20
13928;DHT22;7036;50.834;4.718;2022-08-21T00:41:28;25.20;53.20
13928;DHT22;7036;50.834;4.718;2022-08-21T00:43:55;25.20;53.20
13928;DHT22;7036;50.834;4.718;2022-08-21T00:46:22;25.20;53.20
13928;DHT22;7036;50.834;4.718;2022-08-21T00:48:48;25.20;53.20
13928;DHT22;7036;50.834;4.718;2022-08-21T00:51:20;25.20;53.20
13928;DHT22;7036;50.834;4.718;2022-08-21T00:53:43;25.20;53.20
13928;DHT22;7036;50.834;4.718;2022-08-21T00:56:09;25.20;53.20
13928;DHT22;7036;50.834;4.718;2022-08-21T00:58:37;25.20;53.30
13928;DHT22;7036;50.834;4.718;2022-08-21T01:01:05;25.20;53.30
13928;DHT22;7036;50.834;4.718;2022-08-21T01:03:31;25.20;53.20
13928;DHT22;7036;50.834;4.718;2022-08-21T01:05:58;25.20;53.20
13928;DHT22;7036;50.834;4.718;2022-08-21T01:08:25;25.20;53.20
13928;DHT22;7036;50.834;4.718;2022-08-21T01:10:52;25.20;53.20
13928;DHT22;7036;50.834;4.718;2022-08-21T01:13:18;25.20;53.20
13928;DHT22;7036;50.834;4.718;2022-08-21T01:15:46;25.20;53.20
13928;DHT22;7036;50.834;4.718;2022-08-21T01:18:12;25.20;53.30
13928;DHT22;7036;50.834;4.718;2022-08-21T01:20:41;25.20;53.20
13928;DHT22;7036;50.834;4.718;2022-08-21T01:23:06;25.20;53.20
13928;DHT22;7036;50.834;4.718;2022-08-21T01:25:35;25.20;53.60
13928;DHT22;7036;50.834;4.718;2022-08-21T01:28:06;25.20;53.20
13928;DHT22;7036;50.834;4.718;2022-08-21T01:30:29;25.20;52.90
13928;DHT22;7036;50.834;4.718;2022-08-21T01:32:56;25.20;53.30
13928;DHT22;7036;50.834;4.718;2022-08-21T01:35:24;25.20;53.40
13928;DHT22;7036;50.834;4.718;2022-08-21T01:37:50;25.10;53.20
13928;DHT22;7036;50.834;4.718;2022-08-21T01:40:18;25.10;53.20
13928;DHT22;7036;50.834;4.718;2022-08-21T01:42:45;25.10;53.20
13928;DHT22;7036;50.834;4.718;2022-08-21T01:45:11;25.10;53.20
13928;DHT22;7036;50.834;4.718;2022-08-21T01:47:38;25.10;53.20
13928;DHT22;7036;50.834;4.718;2022-08-21T01:50:05;25.10;53.20
13928;DHT22;7036;50.834;4.718;2022-08-21T01:52:32;25.10;53.20
13928;DHT22;7036;50.834;4.718;2022-08-21T01:54:59;25.10;53.20
13928;DHT22;7036;50.834;4.718;2022-08-21T01:57:26;25.10;53.20
13928;DHT22;7036;50.834;4.718;2022-08-21T01:59:52;25.10;53.20
13928;DHT22;7036;50.834;4.718;2022-08-21T02:02:19;25.10;53.20
13928;DHT22;7036;50.834;4.718;2022-08-21T02:04:46;25.10;53.80
13928;DHT22;7036;50.834;4.718;2022-08-21T02:07:13;25.10;53.20
13928;DHT22;7036;50.834;4.718;2022-08-21T02:09:40;25.10;53.20
13928;DHT22;7036;50.834;4.718;2022-08-21T02:12:07;25.10;53.20
13928;DHT22;7036;50.834;4.718;2022-08-21T02:14:34;25.10;53.20
13928;DHT22;7036;50.834;4.718;2022-08-21T02:17:01;25.10;53.20
13928;DHT22;7036;50.834;4.718;2022-08-21T02:19:28;25.10;53.70
13928;DHT22;7036;50.834;4.718;2022-08-21T02:21:55;25.10;53.20
13928;DHT22;7036;50.834;4.718;2022-08-21T02:24:22;25.10;53.20
13928;DHT22;7036;50.834;4.718;2022-08-21T02:26:49;25.00;53.20
13928;DHT22;7036;50.834;4.718;2022-08-21T02:29:16;25.00;53.20
13928;DHT22;7036;50.834;4.718;2022-08-21T02:31:42;25.00;53.10
13928;DHT22;7036;50.834;4.718;2022-08-21T02:34:09;25.00;53.20
13928;DHT22;7036;50.834;4.718;2022-08-21T02:36:36;25.00;53.20
13928;DHT22;7036;50.834;4.718;2022-08-21T02:39:03;25.00;53.20
13928;DHT22;7036;50.834;4.718;2022-08-21T02:41:30;25.00;53.20
13928;DHT22;7036;50.834;4.718;2022-08-21T02:43:57;25.00;53.20
13928;DHT22;7036;50.834;4.718;2022-08-21T02:46:24;25.00;53.20
13928;DHT22;7036;50.834;4.718;2022-08-21T02:48:51;25.00;53.20
13928;DHT22;7036;50.834;4.718;2022-08-21T02:51:18;25.00;53.20
13928;DHT22;7036;50.834;4.718;2022-08-21T02:53:45;25.00;53.20
13928;DHT22;7036;50.834;4.718;2022-08-21T02:56:13;25.00;53.20
13928;DHT22;7036;50.834;4.718;2022-08-21T02:58:43;25.00;53.20
13928;DHT22;7036;50.834;4.718;2022-08-21T03:01:09;25.00;53.20
13928;DHT22;7036;50.834;4.718;2022-08-21T03:03:36;25.00;53.20
13928;DHT22;7036;50.834;4.718;2022-08-21T03:06:02;25.00;53.20
13928;DHT22;7036;50.834;4.718;2022-08-21T03:08:29;25.00;53.10
13928;DHT22;7036;50.834;4.718;2022-08-21T03:10:56;25.00;53.20
13928;DHT22;7036;50.834;4.718;2022-08-21T03:13:22;25.00;53.20
13928;DHT22;7036;50.834;4.718;2022-08-21T03:15:50;24.90;53.20
13928;DHT22;7036;50.834;4.718;2022-08-21T03:18:17;24.90;53.20
13928;DHT22;7036;50.834;4.718;2022-08-21T03:20:44;24.90;53.10
13928;DHT22;7036;50.834;4.718;2022-08-21T03:23:14;24.90;53.10
13928;DHT22;7036;50.834;4.718;2022-08-21T03:25:40;24.90;53.10
13928;DHT22;7036;50.834;4.718;2022-08-21T03:28:12;24.90;53.10
13928;DHT22;7036;50.834;4.718;2022-08-21T03:30:37;24.90;53.10
13928;DHT22;7036;50.834;4.718;2022-08-21T03:33:04;24.90;53.10
13928;DHT22;7036;50.834;4.718;2022-08-21T03:35:30;24.90;53.10
13928;DHT22;7036;50.834;4.718;2022-08-21T03:37:57;24.90;53.10
13928;DHT22;7036;50.834;4.718;2022-08-21T03:40:24;24.90;53.10
13928;DHT22;7036;50.834;4.718;2022-08-21T03:42:51;24.90;53.20
13928;DHT22;7036;50.834;4.718;2022-08-21T03:45:18;24.90;53.10
13928;DHT22;7036;50.834;4.718;2022-08-21T03:47:54;24.90;53.10
13928;DHT22;7036;50.834;4.718;2022-08-21T03:50:18;24.90;53.20
13928;DHT22;7036;50.834;4.718;2022-08-21T03:52:45;24.90;53.20
13928;DHT22;7036;50.834;4.718;2022-08-21T03:55:11;24.90;53.10
13928;DHT22;7036;50.834;4.718;2022-08-21T03:57:38;24.90;53.10
13928;DHT22;7036;50.834;4.718;2022-08-21T04:00:05;24.80;53.10
13928;DHT22;7036;50.834;4.718;2022-08-21T04:02:32;24.90;53.10
13928;DHT22;7036;50.834;4.718;2022-08-21T04:04:59;24.80;53.10
13928;DHT22;7036;50.834;4.718;2022-08-21T04:07:26;24.80;53.10
13928;DHT22;7036;50.834;4.718;2022-08-21T04:09:53;24.80;53.10
13928;DHT22;7036;50.834;4.718;2022-08-21T04:12:20;24.80;53.10
13928;DHT22;7036;50.834;4.718;2022-08-21T04:14:47;24.80;53.10
13928;DHT22;7036;50.834;4.718;2022-08-21T04:17:14;24.80;53.10
13928;DHT22;7036;50.834;4.718;2022-08-21T04:19:40;24.80;53.10
13928;DHT22;7036;50.834;4.718;2022-08-21T04:22:07;24.80;53.10
13928;DHT22;7036;50.834;4.718;2022-08-21T04:24:34;24.80;53.10
13928;DHT22;7036;50.834;4.718;2022-08-21T04:27:02;24.80;53.20
13928;DHT22;7036;50.834;4.718;2022-08-21T04:29:29;24.80;53.20
13928;DHT22;7036;50.834;4.718;2022-08-21T04:31:57;24.80;53.20
13928;DHT22;7036;50.834;4.718;2022-08-21T04:34:23;24.80;53.10
13928;DHT22;7036;50.834;4.718;2022-08-21T04:36:50;24.80;53.10
13928;DHT22;7036;50.834;4.718;2022-08-21T04:39:18;24.80;53.20
13928;DHT22;7036;50.834;4.718;2022-08-21T04:41:45;24.80;53.20
13928;DHT22;7036;50.834;4.718;2022-08-21T04:44:12;24.80;53.20
13928;DHT22;7036;50.834;4.718;2022-08-21T04:46:39;24.80;53.10
13928;DHT22;7036;50.834;4.718;2022-08-21T04:49:06;24.80;53.10
13928;DHT22;7036;50.834;4.718;2022-08-21T04:51:34;24.80;53.50
13928;DHT22;7036;50.834;4.718;2022-08-21T04:54:12;24.80;53.20
13928;DHT22;7036;50.834;4.718;2022-08-21T04:56:39;24.80;53.10
13928;DHT22;7036;50.834;4.718;2022-08-21T04:59:06;24.80;53.20
13928;DHT22;7036;50.834;4.718;2022-08-21T05:01:32;24.80;53.10
13928;DHT22;7036;50.834;4.718;2022-08-21T05:03:59;24.70;53.00
13928;DHT22;7036;50.834;4.718;2022-08-21T05:06:25;24.70;53.00
13928;DHT22;7036;50.834;4.718;2022-08-21T05:08:52;24.70;53.00
13928;DHT22;7036;50.834;4.718;2022-08-21T05:11:19;24.70;53.00
13928;DHT22;7036;50.834;4.718;2022-08-21T05:13:46;24.70;53.10
13928;DHT22;7036;50.834;4.718;2022-08-21T05:16:14;24.70;53.10
13928;DHT22;7036;50.834;4.718;2022-08-21T05:18:40;24.70;53.00
13928;DHT22;7036;50.834;4.718;2022-08-21T05:21:07;24.70;53.00
13928;DHT22;7036;50.834;4.718;2022-08-21T05:23:35;24.70;53.10
13928;DHT22;7036;50.834;4.718;2022-08-21T05:26:03;24.70;53.10
13928;DHT22;7036;50.834;4.718;2022-08-21T05:28:29;24.70;53.00
13928;DHT22;7036;50.834;4.718;2022-08-21T05:30:56;24.70;53.00
13928;DHT22;7036;50.834;4.718;2022-08-21T05:33:23;24.70;53.00
13928;DHT22;7036;50.834;4.718;2022-08-21T05:35:50;24.70;53.00
13928;DHT22;7036;50.834;4.718;2022-08-21T05:38:16;24.70;53.00
13928;DHT22;7036;50.834;4.718;2022-08-21T05:40:44;24.70;53.10
13928;DHT22;7036;50.834;4.718;2022-08-21T05:43:11;24.70;53.00
13928;DHT22;7036;50.834;4.718;2022-08-21T05:45:39;24.70;53.00
13928;DHT22;7036;50.834;4.718;2022-08-21T05:48:06;24.70;53.00
13928;DHT22;7036;50.834;4.718;2022-08-21T05:50:32;24.70;53.00
13928;DHT22;7036;50.834;4.718;2022-08-21T05:53:00;24.70;53.00
13928;DHT22;7036;50.834;4.718;2022-08-21T05:55:27;24.70;53.00
13928;DHT22;7036;50.834;4.718;2022-08-21T05:57:54;24.70;53.00
13928;DHT22;7036;50.834;4.718;2022-08-21T06:00:21;24.70;52.90
13928;DHT22;7036;50.834;4.718;2022-08-21T06:02:48;24.70;52.90
13928;DHT22;7036;50.834;4.718;2022-08-21T06:05:16;24.70;53.60
13928;DHT22;7036;50.834;4.718;2022-08-21T06:07:43;24.80;53.10
13928;DHT22;7036;50.834;4.718;2022-08-21T06:10:10;24.80;53.10
13928;DHT22;7036;50.834;4.718;2022-08-21T06:12:37;24.70;53.00
13928;DHT22;7036;50.834;4.718;2022-08-21T06:15:04;24.80;53.00
13928;DHT22;7036;50.834;4.718;2022-08-21T06:17:31;24.80;52.90
13928;DHT22;7036;50.834;4.718;2022-08-21T06:19:58;24.80;52.90
13928;DHT22;7036;50.834;4.718;2022-08-21T06:22:25;24.80;53.50
13928;DHT22;7036;50.834;4.718;2022-08-21T06:24:53;24.80;53.00
13928;DHT22;7036;50.834;4.718;2022-08-21T06:27:20;24.80;53.00
13928;DHT22;7036;50.834;4.718;2022-08-21T06:29:47;24.80;52.90
13928;DHT22;7036;50.834;4.718;2022-08-21T06:32:14;24.80;53.00
13928;DHT22;7036;50.834;4.718;2022-08-21T06:34:41;24.80;52.90
13928;DHT22;7036;50.834;4.718;2022-08-21T06:37:07;24.80;52.90
13928;DHT22;7036;50.834;4.718;2022-08-21T06:39:34;24.90;53.00
13928;DHT22;7036;50.834;4.718;2022-08-21T06:42:02;24.80;53.00
13928;DHT22;7036;50.834;4.718;2022-08-21T06:44:30;24.90;53.00
13928;DHT22;7036;50.834;4.718;2022-08-21T06:46:56;24.90;53.00
13928;DHT22;7036;50.834;4.718;2022-08-21T06:49:23;24.90;52.90
13928;DHT22;7036;50.834;4.718;2022-08-21T06:51:50;24.90;52.90
13928;DHT22;7036;50.834;4.718;2022-08-21T06:54:18;25.00;52.70
13928;DHT22;7036;50.834;4.718;2022-08-21T06:57:00;25.00;52.90
13928;DHT22;7036;50.834;4.718;2022-08-21T06:59:27;24.90;52.70
13928;DHT22;7036;50.834;4.718;2022-08-21T07:01:54;25.00;52.70
13928;DHT22;7036;50.834;4.718;2022-08-21T07:04:21;25.00;52.70
13928;DHT22;7036;50.834;4.718;2022-08-21T07:06:48;25.00;52.60
13928;DHT22;7036;50.834;4.718;2022-08-21T07:09:28;25.00;52.60
13928;DHT22;7036;50.834;4.718;2022-08-21T07:12:12;25.00;52.50
13928;DHT22;7036;50.834;4.718;2022-08-21T07:14:46;25.00;52.50
13928;DHT22;7036;50.834;4.718;2022-08-21T07:17:13;25.00;52.60
13928;DHT22;7036;50.834;4.718;2022-08-21T07:19:41;25.00;52.50
13928;DHT22;7036;50.834;4.718;2022-08-21T07:22:08;25.10;52.70
13928;DHT22;7036;50.834;4.718;2022-08-21T07:24:35;25.10;52.60
13928;DHT22;7036;50.834;4.718;2022-08-21T07:27:02;25.00;52.40
13928;DHT22;7036;50.834;4.718;2022-08-21T07:29:29;25.10;52.60
13928;DHT22;7036;50.834;4.718;2022-08-21T07:31:56;25.10;52.30
13928;DHT22;7036;50.834;4.718;2022-08-21T07:34:23;25.10;52.60
13928;DHT22;7036;50.834;4.718;2022-08-21T07:36:50;25.00;52.40
13928;DHT22;7036;50.834;4.718;2022-08-21T07:39:17;25.00;52.50
13928;DHT22;7036;50.834;4.718;2022-08-21T07:41:44;25.00;52.60
13928;DHT22;7036;50.834;4.718;2022-08-21T07:44:12;25.10;53.50
13928;DHT22;7036;50.834;4.718;2022-08-21T07:46:38;25.00;52.60
13928;DHT22;7036;50.834;4.718;2022-08-21T07:49:05;25.10;52.60
13928;DHT22;7036;50.834;4.718;2022-08-21T07:51:32;25.10;52.70
13928;DHT22;7036;50.834;4.718;2022-08-21T07:54:00;25.10;52.20
13928;DHT22;7036;50.834;4.718;2022-08-21T07:56:28;25.10;52.90
13928;DHT22;7036;50.834;4.718;2022-08-21T07:58:55;25.10;52.90
13928;DHT22;7036;50.834;4.718;2022-08-21T08:01:21;25.10;52.80
13928;DHT22;7036;50.834;4.718;2022-08-21T08:03:48;25.10;52.80
13928;DHT22;7036;50.834;4.718;2022-08-21T08:06:15;25.10;53.70
13928;DHT22;7036;50.834;4.718;2022-08-21T08:08:42;25.10;53.30
13928;DHT22;7036;50.834;4.718;2022-08-21T08:11:10;25.10;53.50
13928;DHT22;7036;50.834;4.718;2022-08-21T08:13:40;25.10;53.90
13928;DHT22;7036;50.834;4.718;2022-08-21T08:16:06;25.10;53.80
13928;DHT22;7036;50.834;4.718;2022-08-21T08:18:34;25.10;53.70
13928;DHT22;7036;50.834;4.718;2022-08-21T08:21:02;25.10;53.90
13928;DHT22;7036;50.834;4.718;2022-08-21T08:23:29;25.10;54.20
13928;DHT22;7036;50.834;4.718;2022-08-21T08:25:56;25.10;54.10
13928;DHT22;7036;50.834;4.718;2022-08-21T08:28:22;25.20;54.10
13928;DHT22;7036;50.834;4.718;2022-08-21T08:30:49;25.20;54.10
13928;DHT22;7036;50.834;4.718;2022-08-21T08:33:16;25.20;54.80
13928;DHT22;7036;50.834;4.718;2022-08-21T08:35:44;25.20;54.10
13928;DHT22;7036;50.834;4.718;2022-08-21T08:38:10;25.20;54.10
13928;DHT22;7036;50.834;4.718;2022-08-21T08:40:43;25.20;54.00
13928;DHT22;7036;50.834;4.718;2022-08-21T08:43:06;25.20;54.10
13928;DHT22;7036;50.834;4.718;2022-08-21T08:45:34;25.20;54.10
13928;DHT22;7036;50.834;4.718;2022-08-21T08:48:01;25.20;54.10
13928;DHT22;7036;50.834;4.718;2022-08-21T08:50:28;25.20;54.10
13928;DHT22;7036;50.834;4.718;2022-08-21T08:52:56;25.20;54.10
13928;DHT22;7036;50.834;4.718;2022-08-21T08:55:23;25.20;54.00
13928;DHT22;7036;50.834;4.718;2022-08-21T08:57:48;25.20;53.80
13928;DHT22;7036;50.834;4.718;2022-08-21T09:00:16;25.20;54.70
13928;DHT22;7036;50.834;4.718;2022-08-21T09:02:42;25.20;54.50
13928;DHT22;7036;50.834;4.718;2022-08-21T09:05:20;25.20;54.60
13928;DHT22;7036;50.834;4.718;2022-08-21T09:10:52;25.20;54.50
13928;DHT22;7036;50.834;4.718;2022-08-21T09:16:13;25.20;54.30
13928;DHT22;7036;50.834;4.718;2022-08-21T09:19:03;25.20;54.40
13928;DHT22;7036;50.834;4.718;2022-08-21T09:27:00;25.20;54.20
13928;DHT22;7036;50.834;4.718;2022-08-21T09:29:25;25.30;54.40
13928;DHT22;7036;50.834;4.718;2022-08-21T09:31:51;25.20;54.20
13928;DHT22;7036;50.834;4.718;2022-08-21T09:34:24;25.30;54.10
13928;DHT22;7036;50.834;4.718;2022-08-21T09:36:45;25.30;54.10
13928;DHT22;7036;50.834;4.718;2022-08-21T09:39:12;25.30;54.10
13928;DHT22;7036;50.834;4.718;2022-08-21T09:41:38;25.30;54.20
13928;DHT22;7036;50.834;4.718;2022-08-21T09:44:06;25.20;54.20
13928;DHT22;7036;50.834;4.718;2022-08-21T09:46:33;25.30;54.20
13928;DHT22;7036;50.834;4.718;2022-08-21T09:49:01;25.30;54.10
13928;DHT22;7036;50.834;4.718;2022-08-21T09:51:28;25.20;54.00
13928;DHT22;7036;50.834;4.718;2022-08-21T09:56:33;25.30;53.90
13928;DHT22;7036;50.834;4.718;2022-08-21T09:59:29;25.30;53.80
13928;DHT22;7036;50.834;4.718;2022-08-21T10:01:55;25.30;53.70
13928;DHT22;7036;50.834;4.718;2022-08-21T10:04:26;25.30;53.70
13928;DHT22;7036;50.834;4.718;2022-08-21T10:06:49;25.30;53.60
13928;DHT22;7036;50.834;4.718;2022-08-21T10:09:17;25.40;53.60
13928;DHT22;7036;50.834;4.718;2022-08-21T10:11:50;25.40;53.70
13928;DHT22;7036;50.834;4.718;2022-08-21T10:19:55;25.40;54.10
13928;DHT22;7036;50.834;4.718;2022-08-21T10:22:43;25.40;54.10
13928;DHT22;7036;50.834;4.718;2022-08-21T10:28:05;25.40;54.00
13928;DHT22;7036;50.834;4.718;2022-08-21T10:35:40;25.40;53.80
13928;DHT22;7036;50.834;4.718;2022-08-21T10:44:21;25.40;53.70
13928;DHT22;7036;50.834;4.718;2022-08-21T10:46:59;25.40;53.80
13928;DHT22;7036;50.834;4.718;2022-08-21T10:49:44;25.40;53.70
13928;DHT22;7036;50.834;4.718;2022-08-21T10:57:43;25.40;54.00
13928;DHT22;7036;50.834;4.718;2022-08-21T10:59:52;25.40;53.70
13928;DHT22;7036;50.834;4.718;2022-08-21T11:02:31;25.40;53.30
13928;DHT22;7036;50.834;4.718;2022-08-21T11:07:39;25.40;53.70
13928;DHT22;7036;50.834;4.718;2022-08-21T11:10:15;25.40;53.60
13928;DHT22;7036;50.834;4.718;2022-08-21T11:12:44;25.40;53.60
13928;DHT22;7036;50.834;4.718;2022-08-21T11:15:31;25.40;53.80
13928;DHT22;7036;50.834;4.718;2022-08-21T11:20:32;25.50;54.10
13928;DHT22;7036;50.834;4.718;2022-08-21T11:23:14;25.40;53.70
13928;DHT22;7036;50.834;4.718;2022-08-21T11:25:40;25.40;53.60
13928;DHT22;7036;50.834;4.718;2022-08-21T11:28:06;25.40;53.90
13928;DHT22;7036;50.834;4.718;2022-08-21T11:30:36;25.50;54.20
13928;DHT22;7036;50.834;4.718;2022-08-21T11:33:08;25.50;54.40
13928;DHT22;7036;50.834;4.718;2022-08-21T11:38:27;25.50;54.90
13928;DHT22;7036;50.834;4.718;2022-08-21T11:42:15;25.50;54.20
13928;DHT22;7036;50.834;4.718;2022-08-21T11:43:48;25.50;54.20
13928;DHT22;7036;50.834;4.718;2022-08-21T11:46:22;25.50;54.10
13928;DHT22;7036;50.834;4.718;2022-08-21T11:51:24;25.60;54.20
13928;DHT22;7036;50.834;4.718;2022-08-21T11:53:58;25.60;54.10
13928;DHT22;7036;50.834;4.718;2022-08-21T11:56:21;25.60;54.00
13928;DHT22;7036;50.834;4.718;2022-08-21T11:58:48;25.60;54.20
13928;DHT22;7036;50.834;4.718;2022-08-21T12:01:17;25.60;54.10
13928;DHT22;7036;50.834;4.718;2022-08-21T12:03:44;25.60;54.20
13928;DHT22;7036;50.834;4.718;2022-08-21T12:06:11;25.60;54.50
13928;DHT22;7036;50.834;4.718;2022-08-21T12:08:38;25.60;54.10
13928;DHT22;7036;50.834;4.718;2022-08-21T12:13:37;25.60;54.00
13928;DHT22;7036;50.834;4.718;2022-08-21T12:16:09;25.60;54.00
13928;DHT22;7036;50.834;4.718;2022-08-21T12:18:35;25.60;54.00
13928;DHT22;7036;50.834;4.718;2022-08-21T12:21:22;25.60;54.90
13928;DHT22;7036;50.834;4.718;2022-08-21T12:26:37;25.60;54.00
13928;DHT22;7036;50.834;4.718;2022-08-21T12:29:07;25.50;53.80
13928;DHT22;7036;50.834;4.718;2022-08-21T12:31:32;25.50;54.10
13928;DHT22;7036;50.834;4.718;2022-08-21T12:33:59;25.50;54.00
13928;DHT22;7036;50.834;4.718;2022-08-21T12:36:29;25.60;54.20
13928;DHT22;7036;50.834;4.718;2022-08-21T12:38:59;25.60;54.30
13928;DHT22;7036;50.834;4.718;2022-08-21T12:44:16;25.60;54.10
13928;DHT22;7036;50.834;4.718;2022-08-21T12:46:46;25.60;54.00
13928;DHT22;7036;50.834;4.718;2022-08-21T12:49:16;25.60;54.00
13928;DHT22;7036;50.834;4.718;2022-08-21T12:54:09;25.60;54.20
13928;DHT22;7036;50.834;4.718;2022-08-21T12:56:36;25.60;54.00
13928;DHT22;7036;50.834;4.718;2022-08-21T12:59:04;25.60;54.20
13928;DHT22;7036;50.834;4.718;2022-08-21T13:01:46;25.60;54.30
13928;DHT22;7036;50.834;4.718;2022-08-21T13:04:16;25.60;54.10
13928;DHT22;7036;50.834;4.718;2022-08-21T13:06:46;25.60;54.40
13928;DHT22;7036;50.834;4.718;2022-08-21T13:09:15;25.60;54.20
13928;DHT22;7036;50.834;4.718;2022-08-21T13:11:42;25.60;54.10
13928;DHT22;7036;50.834;4.718;2022-08-21T13:14:18;25.70;54.10
13928;DHT22;7036;50.834;4.718;2022-08-21T13:16:41;25.70;54.00
13928;DHT22;7036;50.834;4.718;2022-08-21T13:19:11;25.60;54.00
13928;DHT22;7036;50.834;4.718;2022-08-21T13:21:39;25.60;53.90
13928;DHT22;7036;50.834;4.718;2022-08-21T13:24:21;25.60;54.00
13928;DHT22;7036;50.834;4.718;2022-08-21T13:26:47;25.70;54.60
13928;DHT22;7036;50.834;4.718;2022-08-21T13:29:17;25.70;54.00
13928;DHT22;7036;50.834;4.718;2022-08-21T13:31:45;25.60;53.80
13928;DHT22;7036;50.834;4.718;2022-08-21T13:34:08;25.70;53.90
13928;DHT22;7036;50.834;4.718;2022-08-21T13:36:36;25.70;54.50
13928;DHT22;7036;50.834;4.718;2022-08-21T13:39:03;25.70;53.80
13928;DHT22;7036;50.834;4.718;2022-08-21T13:41:37;25.70;53.80
13928;DHT22;7036;50.834;4.718;2022-08-21T13:44:17;25.70;53.80
13928;DHT22;7036;50.834;4.718;2022-08-21T13:46:43;25.70;53.70
13928;DHT22;7036;50.834;4.718;2022-08-21T13:49:09;25.70;53.70
13928;DHT22;7036;50.834;4.718;2022-08-21T13:51:36;25.70;53.70
13928;DHT22;7036;50.834;4.718;2022-08-21T13:54:13;25.70;53.50
13928;DHT22;7036;50.834;4.718;2022-08-21T13:56:45;25.70;53.40
13928;DHT22;7036;50.834;4.718;2022-08-21T13:59:12;25.70;53.40
13928;DHT22;7036;50.834;4.718;2022-08-21T14:01:56;25.70;53.40
13928;DHT22;7036;50.834;4.718;2022-08-21T14:04:22;25.70;53.40
13928;DHT22;7036;50.834;4.718;2022-08-21T14:06:47;25.70;53.40
13928;DHT22;7036;50.834;4.718;2022-08-21T14:09:26;25.70;53.40
13928;DHT22;7036;50.834;4.718;2022-08-21T14:11:50;25.60;53.30
13928;DHT22;7036;50.834;4.718;2022-08-21T14:14:22;25.70;53.40
13928;DHT22;7036;50.834;4.718;2022-08-21T14:16:52;25.70;53.30
13928;DHT22;7036;50.834;4.718;2022-08-21T14:19:20;25.70;53.20
13928;DHT22;7036;50.834;4.718;2022-08-21T14:21:46;25.70;53.70
13928;DHT22;7036;50.834;4.718;2022-08-21T14:24:25;25.70;54.00
13928;DHT22;7036;50.834;4.718;2022-08-21T14:26:52;25.70;53.90
13928;DHT22;7036;50.834;4.718;2022-08-21T14:29:17;25.70;53.70
13928;DHT22;7036;50.834;4.718;2022-08-21T14:31:51;25.70;53.90
13928;DHT22;7036;50.834;4.718;2022-08-21T14:34:18;25.70;53.80
13928;DHT22;7036;50.834;4.718;2022-08-21T14:36:46;25.70;53.60
13928;DHT22;7036;50.834;4.718;2022-08-21T14:39:12;25.70;53.40
13928;DHT22;7036;50.834;4.718;2022-08-21T14:41:39;25.70;53.40
13928;DHT22;7036;50.834;4.718;2022-08-21T14:44:07;25.70;53.50
13928;DHT22;7036;50.834;4.718;2022-08-21T14:46:34;25.70;53.40
13928;DHT22;7036;50.834;4.718;2022-08-21T14:49:02;25.70;53.50
13928;DHT22;7036;50.834;4.718;2022-08-21T14:51:28;25.70;53.40
13928;DHT22;7036;50.834;4.718;2022-08-21T14:53:55;25.70;53.40
13928;DHT22;7036;50.834;4.718;2022-08-21T14:56:22;25.70;53.20
13928;DHT22;7036;50.834;4.718;2022-08-21T14:58:49;25.70;52.60
13928;DHT22;7036;50.834;4.718;2022-08-21T15:01:16;25.70;53.20
13928;DHT22;7036;50.834;4.718;2022-08-21T15:03:42;25.70;53.20
13928;DHT22;7036;50.834;4.718;2022-08-21T15:06:12;25.70;53.30
13928;DHT22;7036;50.834;4.718;2022-08-21T15:08:37;25.70;53.30
13928;DHT22;7036;50.834;4.718;2022-08-21T15:11:05;25.70;53.30
13928;DHT22;7036;50.834;4.718;2022-08-21T15:13:31;25.70;53.20
13928;DHT22;7036;50.834;4.718;2022-08-21T15:15:58;25.70;53.20
13928;DHT22;7036;50.834;4.718;2022-08-21T15:18:26;25.70;54.20
13928;DHT22;7036;50.834;4.718;2022-08-21T15:20:53;25.70;53.30
13928;DHT22;7036;50.834;4.718;2022-08-21T15:23:19;25.70;53.20
13928;DHT22;7036;50.834;4.718;2022-08-21T15:25:47;25.70;53.20
13928;DHT22;7036;50.834;4.718;2022-08-21T15:28:14;25.70;53.00
13928;DHT22;7036;50.834;4.718;2022-08-21T15:30:41;25.70;53.60
13928;DHT22;7036;50.834;4.718;2022-08-21T15:33:09;25.70;53.60
13928;DHT22;7036;50.834;4.718;2022-08-21T15:35:36;25.60;53.40
13928;DHT22;7036;50.834;4.718;2022-08-21T15:38:03;25.60;53.50
13928;DHT22;7036;50.834;4.718;2022-08-21T15:40:30;25.70;53.70
13928;DHT22;7036;50.834;4.718;2022-08-21T15:43:00;25.70;53.60
13928;DHT22;7036;50.834;4.718;2022-08-21T15:45:23;25.60;53.30
13928;DHT22;7036;50.834;4.718;2022-08-21T15:47:51;25.70;53.50
13928;DHT22;7036;50.834;4.718;2022-08-21T15:50:18;25.60;53.30
13928;DHT22;7036;50.834;4.718;2022-08-21T15:52:45;25.60;53.20
13928;DHT22;7036;50.834;4.718;2022-08-21T15:55:12;25.60;53.20
13928;DHT22;7036;50.834;4.718;2022-08-21T15:57:42;25.60;53.20
13928;DHT22;7036;50.834;4.718;2022-08-21T16:00:10;25.70;53.30
13928;DHT22;7036;50.834;4.718;2022-08-21T16:02:35;25.60;53.10
13928;DHT22;7036;50.834;4.718;2022-08-21T16:05:02;25.60;53.20
13928;DHT22;7036;50.834;4.718;2022-08-21T16:07:29;25.60;53.20
13928;DHT22;7036;50.834;4.718;2022-08-21T16:09:56;25.60;53.20
13928;DHT22;7036;50.834;4.718;2022-08-21T16:12:24;25.60;53.20
13928;DHT22;7036;50.834;4.718;2022-08-21T16:14:51;25.60;53.20
13928;DHT22;7036;50.834;4.718;2022-08-21T16:17:17;25.60;53.20
13928;DHT22;7036;50.834;4.718;2022-08-21T16:19:43;25.60;53.20
13928;DHT22;7036;50.834;4.718;2022-08-21T16:22:10;25.60;53.30
13928;DHT22;7036;50.834;4.718;2022-08-21T16:24:37;25.60;53.20
13928;DHT22;7036;50.834;4.718;2022-08-21T16:27:04;25.60;53.20
13928;DHT22;7036;50.834;4.718;2022-08-21T16:29:32;25.60;53.30
13928;DHT22;7036;50.834;4.718;2022-08-21T16:31:58;25.60;53.30
13928;DHT22;7036;50.834;4.718;2022-08-21T16:34:25;25.60;53.30
13928;DHT22;7036;50.834;4.718;2022-08-21T16:36:52;25.60;53.30
13928;DHT22;7036;50.834;4.718;2022-08-21T16:39:19;25.60;53.20
13928;DHT22;7036;50.834;4.718;2022-08-21T16:41:46;25.60;53.40
13928;DHT22;7036;50.834;4.718;2022-08-21T16:44:13;25.60;53.30
13928;DHT22;7036;50.834;4.718;2022-08-21T16:46:40;25.60;53.30
13928;DHT22;7036;50.834;4.718;2022-08-21T16:49:07;25.60;53.30
13928;DHT22;7036;50.834;4.718;2022-08-21T16:51:35;25.60;53.50